createdAt,value
2019-05-10T00:00:04.402Z,12.14
2019-05-10T00:01:04.382Z,12.19
2019-05-10T00:02:04.363Z,12.16
2019-05-10T00:03:04.337Z,12.16
2019-05-10T00:04:04.310Z,12.12
2019-05-10T00:05:04.292Z,12.16
2019-05-10T00:06:04.271Z,12.17
2019-05-10T00:07:04.252Z,12.14
2019-05-10T00:08:04.230Z,12.13
2019-05-10T00:09:04.211Z,12.12
2019-05-10T00:10:04.186Z,12.09
2019-05-10T00:11:04.164Z,12.17
2019-05-10T00:12:04.144Z,12.13
2019-05-10T00:13:04.123Z,12.16
2019-05-10T00:14:04.102Z,12.16
2019-05-10T00:15:04.081Z,12.13
2019-05-10T00:16:04.062Z,12.17
2019-05-10T00:17:04.040Z,12.19
2019-05-10T00:18:04.019Z,12.17
2019-05-10T00:19:03.998Z,12.17
2019-05-10T00:20:03.975Z,12.16
2019-05-10T00:21:03.964Z,12.16
2019-05-10T00:22:03.939Z,12.17
2019-05-10T00:23:03.916Z,12.13
2019-05-10T00:24:03.899Z,12.17
2019-05-10T00:25:05.160Z,12.12
2019-05-10T00:26:03.858Z,12.17
2019-05-10T00:27:03.837Z,12.19
2019-05-10T00:28:03.813Z,12.17
2019-05-10T00:29:03.790Z,12.14
2019-05-10T00:30:03.772Z,12.12
2019-05-10T00:31:03.749Z,12.10
2019-05-10T00:32:03.732Z,12.19
2019-05-10T00:33:03.740Z,12.14
2019-05-10T00:34:03.698Z,12.16
2019-05-10T00:35:03.672Z,12.14
2019-05-10T00:36:03.649Z,12.17
2019-05-10T00:37:03.634Z,12.24
2019-05-10T00:38:03.613Z,12.07
2019-05-10T00:39:03.580Z,12.13
2019-05-10T00:40:03.566Z,12.12
2019-05-10T00:41:03.548Z,12.10
2019-05-10T00:42:03.521Z,12.05
2019-05-10T00:43:03.498Z,11.99
2019-05-10T00:44:03.490Z,12.04
2019-05-10T00:45:03.490Z,12.01
2019-05-10T00:46:03.436Z,11.98
2019-05-10T00:47:03.416Z,11.99
2019-05-10T00:48:03.396Z,12.04
2019-05-10T00:49:03.374Z,12.07
2019-05-10T00:50:03.353Z,11.99
2019-05-10T00:51:03.396Z,11.99
2019-05-10T00:52:03.310Z,12.02
2019-05-10T00:53:03.291Z,12.02
2019-05-10T00:54:03.270Z,11.98
2019-05-10T00:55:17.722Z,12.04
2019-05-10T00:56:03.224Z,11.91
2019-05-10T00:57:03.206Z,11.98
2019-05-10T00:58:03.186Z,11.86
2019-05-10T00:59:03.166Z,12.04
2019-05-10T01:00:03.145Z,11.99
2019-05-10T01:01:03.123Z,11.94
2019-05-10T01:02:03.100Z,12.04
2019-05-10T01:03:03.080Z,11.91
2019-05-10T01:04:03.057Z,11.91
2019-05-10T01:05:03.037Z,12.01
2019-05-10T01:06:03.038Z,11.86
2019-05-10T01:07:02.994Z,11.91
2019-05-10T01:08:02.979Z,11.95
2019-05-10T01:09:02.962Z,11.94
2019-05-10T01:10:02.935Z,12.04
2019-05-10T01:11:02.912Z,11.85
2019-05-10T01:12:02.890Z,11.88
2019-05-10T01:13:02.868Z,11.79
2019-05-10T01:14:02.851Z,11.78
2019-05-10T01:15:02.829Z,11.79
2019-05-10T01:16:02.813Z,11.80
2019-05-10T01:17:02.785Z,11.79
2019-05-10T01:18:02.764Z,11.73
2019-05-10T01:19:02.742Z,11.76
2019-05-10T01:20:02.723Z,11.58
2019-05-10T01:21:02.702Z,11.60
2019-05-10T01:22:02.693Z,11.61
2019-05-10T01:23:02.663Z,11.60
2019-05-10T01:24:02.647Z,11.58
2019-05-10T01:25:02.621Z,11.61
2019-05-10T01:26:02.599Z,11.58
2019-05-10T01:27:02.576Z,11.58
2019-05-10T01:28:02.568Z,11.55
2019-05-10T01:29:02.534Z,11.58
2019-05-10T01:30:02.514Z,11.54
2019-05-10T01:31:02.491Z,11.57
2019-05-10T01:32:02.482Z,11.47
2019-05-10T01:33:02.451Z,11.51
2019-05-10T01:34:02.439Z,11.52
2019-05-10T01:35:02.406Z,11.54
2019-05-10T01:36:02.386Z,11.46
2019-05-10T01:37:02.370Z,11.47
2019-05-10T01:38:02.344Z,11.46
2019-05-10T01:39:02.326Z,11.44
2019-05-10T01:40:02.314Z,11.46
2019-05-10T01:41:02.355Z,11.42
2019-05-10T01:42:02.262Z,11.35
2019-05-10T01:43:02.239Z,11.32
2019-05-10T01:44:02.239Z,11.27
2019-05-10T01:45:02.200Z,11.39
2019-05-10T01:46:02.188Z,11.29
2019-05-10T01:47:02.157Z,11.36
2019-05-10T01:48:02.135Z,11.37
2019-05-10T01:49:02.124Z,11.36
2019-05-10T01:50:02.092Z,11.36
2019-05-10T01:51:02.216Z,11.28
2019-05-10T01:52:02.049Z,11.28
2019-05-10T01:53:02.029Z,11.28
2019-05-10T01:54:02.007Z,11.32
2019-05-10T01:55:02.076Z,11.37
2019-05-10T01:56:01.971Z,11.36
2019-05-10T01:57:01.944Z,11.36
2019-05-10T01:58:01.924Z,11.35
2019-05-10T01:59:01.900Z,11.39
2019-05-10T02:00:01.880Z,11.35
2019-05-10T02:01:01.862Z,11.35
2019-05-10T02:02:01.842Z,11.37
2019-05-10T02:03:01.815Z,11.33
2019-05-10T02:04:01.796Z,11.43
2019-05-10T02:05:01.780Z,11.43
2019-05-10T02:06:01.764Z,11.39
2019-05-10T02:07:01.731Z,11.43
2019-05-10T02:08:01.710Z,11.43
2019-05-10T02:09:01.689Z,11.37
2019-05-10T02:10:01.696Z,11.32
2019-05-10T02:11:01.654Z,11.32
2019-05-10T02:12:01.625Z,11.27
2019-05-10T02:13:01.607Z,11.37
2019-05-10T02:14:01.584Z,11.35
2019-05-10T02:15:01.566Z,11.35
2019-05-10T02:16:01.542Z,11.28
2019-05-10T02:17:01.522Z,11.36
2019-05-10T02:18:01.503Z,11.28
2019-05-10T02:19:01.478Z,11.27
2019-05-10T02:20:01.481Z,11.32
2019-05-10T02:21:01.438Z,11.33
2019-05-10T02:22:01.427Z,11.40
2019-05-10T02:23:01.394Z,11.33
2019-05-10T02:24:01.374Z,11.35
2019-05-10T02:25:01.354Z,11.27
2019-05-10T02:26:09.446Z,11.18
2019-05-10T02:27:01.310Z,11.17
2019-05-10T02:28:01.292Z,11.19
2019-05-10T02:29:01.307Z,11.22
2019-05-10T02:30:01.279Z,11.19
2019-05-10T02:31:01.225Z,11.14
2019-05-10T02:32:01.203Z,11.15
2019-05-10T02:33:01.183Z,11.11
2019-05-10T02:34:01.161Z,11.06
2019-05-10T02:35:01.153Z,11.10
2019-05-10T02:36:01.121Z,11.10
2019-05-10T02:37:01.101Z,11.03
2019-05-10T02:38:01.092Z,11.04
2019-05-10T02:39:01.054Z,11.02
2019-05-10T02:40:01.044Z,10.99
2019-05-10T02:41:01.009Z,11.03
2019-05-10T02:42:01.001Z,11.04
2019-05-10T02:43:00.967Z,11.00
2019-05-10T02:44:00.945Z,11.02
2019-05-10T02:45:00.925Z,10.97
2019-05-10T02:46:00.903Z,11.00
2019-05-10T02:47:00.883Z,10.94
2019-05-10T02:48:00.867Z,11.00
2019-05-10T02:49:00.852Z,10.99
2019-05-10T02:50:00.818Z,10.92
2019-05-10T02:51:00.803Z,10.92
2019-05-10T02:52:00.776Z,11.03
2019-05-10T02:53:00.763Z,10.91
2019-05-10T02:54:00.744Z,10.94
2019-05-10T02:55:00.709Z,10.92
2019-05-10T02:56:00.691Z,10.88
2019-05-10T02:57:00.667Z,10.91
2019-05-10T02:58:00.649Z,10.89
2019-05-10T02:59:00.623Z,10.88
2019-05-10T03:00:00.604Z,10.89
2019-05-10T03:01:00.587Z,10.86
2019-05-10T03:02:00.581Z,10.92
2019-05-10T03:03:00.540Z,10.85
2019-05-10T03:04:00.524Z,10.91
2019-05-10T03:05:00.496Z,10.92
2019-05-10T03:06:00.474Z,10.79
2019-05-10T03:07:00.452Z,10.81
2019-05-10T03:08:00.431Z,10.82
2019-05-10T03:09:00.408Z,10.76
2019-05-10T03:10:00.388Z,10.85
2019-05-10T03:11:00.373Z,10.78
2019-05-10T03:12:00.346Z,10.84
2019-05-10T03:13:00.329Z,10.79
2019-05-10T03:14:00.308Z,10.86
2019-05-10T03:15:00.278Z,10.88
2019-05-10T03:16:00.259Z,10.82
2019-05-10T03:17:00.238Z,10.85
2019-05-10T03:18:00.220Z,10.89
2019-05-10T03:19:00.192Z,10.92
2019-05-10T03:20:00.186Z,10.91
2019-05-10T03:21:00.153Z,10.86
2019-05-10T03:22:00.131Z,10.91
2019-05-10T03:23:00.111Z,10.88
2019-05-10T03:24:00.092Z,10.82
2019-05-10T03:25:00.069Z,10.84
2019-05-10T03:26:00.047Z,10.91
2019-05-10T03:27:00.024Z,10.86
2019-05-10T03:28:00.002Z,10.85
2019-05-10T03:28:59.983Z,10.88
2019-05-10T03:29:59.959Z,10.84
2019-05-10T03:30:59.940Z,10.89
2019-05-10T03:31:59.916Z,10.84
2019-05-10T03:32:59.896Z,10.85
2019-05-10T03:33:59.882Z,10.81
2019-05-10T03:34:59.856Z,10.79
2019-05-10T03:35:59.829Z,10.81
2019-05-10T03:36:59.807Z,10.82
2019-05-10T03:37:59.786Z,10.82
2019-05-10T03:38:59.768Z,10.81
2019-05-10T03:39:59.755Z,10.84
2019-05-10T03:40:59.721Z,10.84
2019-05-10T03:41:59.701Z,10.82
2019-05-10T03:42:59.681Z,10.79
2019-05-10T03:43:59.656Z,10.82
2019-05-10T03:44:59.636Z,10.84
2019-05-10T03:45:59.616Z,10.81
2019-05-10T03:46:59.591Z,10.85
2019-05-10T03:47:59.570Z,10.85
2019-05-10T03:48:59.552Z,10.79
2019-05-10T03:49:59.540Z,10.81
2019-05-10T03:50:59.505Z,10.85
2019-05-10T03:51:59.494Z,10.76
2019-05-10T03:52:59.470Z,10.81
2019-05-10T03:53:59.519Z,10.78
2019-05-10T03:54:59.423Z,10.74
2019-05-10T03:55:59.401Z,10.74
2019-05-10T03:57:12.091Z,10.68
2019-05-10T03:57:59.357Z,10.73
2019-05-10T03:58:59.333Z,10.79
2019-05-10T03:59:59.325Z,10.79
2019-05-10T04:00:59.294Z,10.73
2019-05-10T04:01:59.273Z,10.84
2019-05-10T04:02:59.267Z,10.81
2019-05-10T04:03:59.231Z,10.78
2019-05-10T04:04:59.208Z,10.71
2019-05-10T04:05:59.183Z,10.71
2019-05-10T04:06:59.162Z,10.73
2019-05-10T04:07:59.142Z,10.71
2019-05-10T04:08:59.119Z,10.73
2019-05-10T04:09:59.104Z,10.78
2019-05-10T04:10:59.077Z,10.73
2019-05-10T04:11:59.054Z,10.78
2019-05-10T04:12:59.035Z,10.81
2019-05-10T04:13:59.049Z,10.88
2019-05-10T04:14:58.995Z,10.82
2019-05-10T04:15:58.971Z,10.74
2019-05-10T04:16:58.954Z,10.79
2019-05-10T04:17:58.928Z,10.70
2019-05-10T04:18:58.902Z,10.82
2019-05-10T04:19:58.895Z,10.78
2019-05-10T04:20:58.863Z,10.78
2019-05-10T04:21:58.853Z,10.79
2019-05-10T04:22:58.820Z,10.82
2019-05-10T04:23:58.795Z,10.71
2019-05-10T04:24:58.775Z,10.74
2019-05-10T04:25:58.754Z,10.61
2019-05-10T04:26:58.731Z,10.76
2019-05-10T04:27:58.709Z,10.70
2019-05-10T04:28:58.695Z,10.67
2019-05-10T04:29:58.728Z,10.78
2019-05-10T04:30:58.644Z,10.70
2019-05-10T04:31:58.632Z,10.81
2019-05-10T04:32:58.600Z,10.78
2019-05-10T04:33:58.582Z,10.73
2019-05-10T04:34:58.558Z,10.73
2019-05-10T04:35:58.538Z,10.79
2019-05-10T04:36:58.522Z,10.76
2019-05-10T04:37:58.491Z,10.73
2019-05-10T04:38:58.470Z,10.71
2019-05-10T04:39:58.467Z,10.70
2019-05-10T04:40:58.425Z,10.61
2019-05-10T04:41:58.406Z,10.70
2019-05-10T04:42:58.382Z,10.78
2019-05-10T04:43:58.361Z,10.79
2019-05-10T04:44:58.339Z,10.79
2019-05-10T04:45:58.318Z,10.71
2019-05-10T04:46:58.295Z,10.79
2019-05-10T04:47:58.286Z,10.73
2019-05-10T04:48:58.254Z,10.76
2019-05-10T04:49:58.230Z,10.79
2019-05-10T04:50:58.222Z,10.76
2019-05-10T04:51:58.185Z,10.71
2019-05-10T04:52:58.165Z,10.81
2019-05-10T04:53:58.147Z,10.74
2019-05-10T04:54:58.122Z,10.81
2019-05-10T04:55:58.102Z,10.74
2019-05-10T04:57:00.205Z,10.81
2019-05-10T04:57:58.058Z,10.81
2019-05-10T04:58:58.045Z,10.84
2019-05-10T04:59:58.010Z,10.94
2019-05-10T05:00:57.990Z,10.84
2019-05-10T05:01:57.971Z,10.81
2019-05-10T05:02:57.946Z,10.84
2019-05-10T05:03:57.939Z,10.79
2019-05-10T05:04:58.008Z,10.82
2019-05-10T05:05:57.886Z,10.84
2019-05-10T05:06:57.871Z,10.85
2019-05-10T05:07:57.838Z,10.82
2019-05-10T05:08:57.820Z,10.91
2019-05-10T05:09:57.811Z,10.76
2019-05-10T05:10:57.775Z,10.84
2019-05-10T05:11:57.752Z,10.76
2019-05-10T05:12:57.733Z,10.82
2019-05-10T05:13:57.708Z,10.89
2019-05-10T05:14:57.696Z,10.89
2019-05-10T05:15:57.678Z,10.96
2019-05-10T05:16:57.670Z,10.89
2019-05-10T05:17:57.622Z,10.97
2019-05-10T05:18:57.608Z,10.91
2019-05-10T05:19:57.577Z,10.91
2019-05-10T05:20:57.560Z,10.92
2019-05-10T05:21:57.538Z,10.92
2019-05-10T05:22:57.513Z,10.89
2019-05-10T05:23:57.501Z,10.96
2019-05-10T05:25:01.249Z,10.91
2019-05-10T05:25:57.453Z,10.89
2019-05-10T05:26:57.429Z,10.96
2019-05-10T05:28:07.399Z,10.85
2019-05-10T05:28:57.390Z,10.89
2019-05-10T05:29:57.363Z,10.89
2019-05-10T05:30:57.341Z,10.92
2019-05-10T05:32:01.184Z,10.91
2019-05-10T05:32:57.299Z,10.97
2019-05-10T05:33:59.209Z,10.94
2019-05-10T05:34:57.251Z,10.91
2019-05-10T05:35:57.230Z,10.88
2019-05-10T05:36:57.209Z,10.91
2019-05-10T05:37:57.191Z,10.94
2019-05-10T05:38:57.168Z,10.94
2019-05-10T05:39:57.147Z,10.96
2019-05-10T05:40:57.123Z,10.92
2019-05-10T05:41:57.146Z,10.92
2019-05-10T05:42:57.077Z,10.94
2019-05-10T05:43:57.072Z,11.02
2019-05-10T05:44:57.037Z,10.97
2019-05-10T05:45:57.014Z,11.02
2019-05-10T05:46:56.996Z,11.04
2019-05-10T05:47:56.977Z,10.97
2019-05-10T05:48:56.947Z,11.00
2019-05-10T05:49:56.928Z,11.07
2019-05-10T05:50:56.913Z,11.09
2019-05-10T05:51:56.882Z,11.06
2019-05-10T05:52:56.861Z,11.11
2019-05-10T05:53:56.869Z,11.11
2019-05-10T05:54:57.488Z,11.09
2019-05-10T05:55:56.795Z,11.06
2019-05-10T05:56:56.781Z,11.10
2019-05-10T05:57:59.263Z,11.11
2019-05-10T05:58:56.730Z,11.07
2019-05-10T05:59:57.717Z,11.14
2019-05-10T06:00:56.693Z,11.10
2019-05-10T06:02:00.558Z,11.10
2019-05-10T06:02:56.644Z,11.14
2019-05-10T06:04:00.212Z,11.10
2019-05-10T06:04:56.674Z,11.11
2019-05-10T06:05:56.581Z,11.09
2019-05-10T06:06:59.024Z,11.11
2019-05-10T06:07:56.553Z,11.15
2019-05-10T06:08:59.552Z,11.09
2019-05-10T06:09:56.494Z,11.22
2019-05-10T06:10:59.666Z,11.14
2019-05-10T06:11:56.452Z,11.09
2019-05-10T06:12:56.444Z,11.11
2019-05-10T06:13:56.417Z,11.10
2019-05-10T06:14:56.390Z,11.11
2019-05-10T06:15:59.888Z,11.10
2019-05-10T06:16:56.343Z,11.15
2019-05-10T06:17:57.573Z,11.14
2019-05-10T06:18:56.299Z,11.25
2019-05-10T06:20:00.847Z,11.22
2019-05-10T06:20:56.257Z,11.19
2019-05-10T06:21:57.953Z,11.25
2019-05-10T06:23:06.596Z,11.21
2019-05-10T06:23:59.226Z,11.22
2019-05-10T06:24:56.168Z,11.35
2019-05-10T06:25:56.154Z,11.25
2019-05-10T06:26:58.363Z,11.27
2019-05-10T06:27:56.106Z,11.25
2019-05-10T06:28:59.480Z,11.24
2019-05-10T06:29:56.064Z,11.29
2019-05-10T06:30:56.041Z,11.25
2019-05-10T06:31:58.791Z,11.35
2019-05-10T06:33:00.721Z,11.37
2019-05-10T06:33:55.980Z,11.35
2019-05-10T06:34:55.954Z,11.33
2019-05-10T06:35:55.934Z,11.35
2019-05-10T06:36:55.912Z,11.32
2019-05-10T06:37:55.894Z,11.27
2019-05-10T06:38:55.869Z,11.27
2019-05-10T06:39:55.848Z,11.27
2019-05-10T06:40:55.826Z,11.27
2019-05-10T06:41:58.266Z,11.32
2019-05-10T06:42:55.783Z,11.36
2019-05-10T06:43:55.767Z,11.21
2019-05-10T06:44:55.746Z,11.21
2019-05-10T06:45:55.826Z,11.33
2019-05-10T06:46:55.697Z,11.15
2019-05-10T06:47:55.676Z,11.18
2019-05-10T06:48:55.655Z,11.18
2019-05-10T06:49:55.633Z,11.11
2019-05-10T06:50:55.613Z,11.14
2019-05-10T06:51:55.594Z,11.24
2019-05-10T06:53:00.763Z,11.21
2019-05-10T06:53:55.548Z,11.14
2019-05-10T06:54:58.560Z,11.18
2019-05-10T06:55:55.504Z,11.18
2019-05-10T06:56:55.485Z,11.19
2019-05-10T06:57:59.159Z,11.28
2019-05-10T06:58:55.440Z,11.33
2019-05-10T06:59:57.072Z,11.28
2019-05-10T07:00:55.400Z,11.22
2019-05-10T07:01:55.381Z,11.24
2019-05-10T07:02:55.354Z,11.28
2019-05-10T07:03:55.340Z,11.25
2019-05-10T07:04:55.326Z,11.32
2019-05-10T07:05:55.293Z,11.33
2019-05-10T07:06:55.267Z,11.35
2019-05-10T07:08:00.614Z,11.37
2019-05-10T07:08:57.925Z,11.36
2019-05-10T07:10:12.614Z,11.39
2019-05-10T07:10:55.185Z,11.49
2019-05-10T07:11:55.162Z,11.44
2019-05-10T07:12:57.275Z,11.43
2019-05-10T07:13:55.121Z,11.49
2019-05-10T07:14:57.837Z,11.43
2019-05-10T07:15:55.076Z,11.33
2019-05-10T07:16:56.560Z,11.32
2019-05-10T07:17:55.033Z,11.33
2019-05-10T07:19:00.350Z,11.32
2019-05-10T07:19:55.442Z,11.33
2019-05-10T07:20:54.971Z,11.40
2019-05-10T07:21:54.946Z,11.37
2019-05-10T07:22:59.911Z,11.39
2019-05-10T07:23:54.919Z,11.46
2019-05-10T07:24:57.170Z,11.39
2019-05-10T07:25:54.867Z,11.39
2019-05-10T07:26:56.619Z,11.42
2019-05-10T07:27:54.820Z,11.55
2019-05-10T07:28:57.560Z,11.69
2019-05-10T07:29:54.777Z,11.78
2019-05-10T07:30:54.756Z,11.79
2019-05-10T07:31:54.733Z,11.79
2019-05-10T07:32:59.784Z,11.76
2019-05-10T07:33:54.693Z,11.80
2019-05-10T07:34:58.873Z,11.86
2019-05-10T07:35:54.648Z,11.91
2019-05-10T07:36:54.625Z,11.88
2019-05-10T07:37:54.617Z,11.95
2019-05-10T07:38:54.583Z,12.04
2019-05-10T07:39:54.575Z,12.09
2019-05-10T07:40:54.543Z,12.12
2019-05-10T07:41:54.519Z,12.04
2019-05-10T07:42:54.497Z,11.99
2019-05-10T07:44:00.410Z,11.91
2019-05-10T07:44:54.455Z,11.98
2019-05-10T07:45:58.795Z,11.91
2019-05-10T07:46:58.434Z,11.90
2019-05-10T07:47:54.391Z,11.91
2019-05-10T07:48:54.370Z,12.04
2019-05-10T07:49:54.357Z,11.98
2019-05-10T07:50:54.328Z,12.05
2019-05-10T07:51:54.307Z,11.94
2019-05-10T07:52:54.286Z,11.86
2019-05-10T07:53:56.946Z,11.91
2019-05-10T07:54:54.245Z,11.95
2019-05-10T07:55:54.222Z,11.99
2019-05-10T07:56:54.199Z,12.10
2019-05-10T07:57:59.044Z,12.04
2019-05-10T07:58:54.157Z,12.04
2019-05-10T07:59:57.544Z,12.02
2019-05-10T08:00:56.053Z,12.12
2019-05-10T08:01:54.106Z,12.02
2019-05-10T08:03:02.373Z,12.07
2019-05-10T08:03:54.052Z,12.20
2019-05-10T08:04:54.030Z,12.16
2019-05-10T08:05:57.031Z,12.16
2019-05-10T08:06:53.988Z,12.20
2019-05-10T08:07:53.967Z,12.14
2019-05-10T08:08:55.320Z,12.12
2019-05-10T08:09:53.929Z,12.14
2019-05-10T08:10:53.906Z,12.09
2019-05-10T08:11:59.549Z,12.13
2019-05-10T08:12:53.861Z,12.16
2019-05-10T08:13:57.863Z,12.17
2019-05-10T08:14:53.826Z,12.17
2019-05-10T08:15:53.797Z,12.13
2019-05-10T08:16:58.461Z,12.16
2019-05-10T08:17:53.755Z,12.20
2019-05-10T08:18:55.627Z,12.14
2019-05-10T08:19:53.713Z,12.19
2019-05-10T08:20:59.467Z,12.13
2019-05-10T08:22:00.510Z,12.05
2019-05-10T08:22:53.651Z,12.13
2019-05-10T08:23:54.125Z,12.09
2019-05-10T08:24:56.303Z,12.14
2019-05-10T08:25:53.673Z,12.12
2019-05-10T08:26:55.580Z,12.12
2019-05-10T08:27:55.449Z,12.01
2019-05-10T08:28:53.532Z,12.07
2019-05-10T08:30:18.067Z,12.09
2019-05-10T08:30:58.822Z,11.94
2019-05-10T08:31:55.898Z,11.99
2019-05-10T08:32:53.440Z,11.99
2019-05-10T08:33:58.500Z,11.96
2019-05-10T08:34:55.906Z,11.88
2019-05-10T08:36:00.646Z,11.85
2019-05-10T08:36:53.356Z,11.78
2019-05-10T08:37:53.338Z,11.80
2019-05-10T08:39:05.095Z,11.69
2019-05-10T08:39:56.045Z,11.75
2019-05-10T08:40:53.270Z,11.78
2019-05-10T08:42:03.885Z,11.76
2019-05-10T08:43:00.200Z,11.78
2019-05-10T08:43:53.204Z,11.69
2019-05-10T08:45:03.363Z,11.78
2019-05-10T08:45:53.163Z,11.79
2019-05-10T08:46:53.145Z,11.78
2019-05-10T08:48:00.760Z,11.80
2019-05-10T08:48:53.897Z,11.80
2019-05-10T08:50:10.644Z,11.82
2019-05-10T08:50:57.092Z,11.82
2019-05-10T08:51:53.035Z,11.79
2019-05-10T08:52:56.676Z,11.86
2019-05-10T08:53:58.023Z,11.86
2019-05-10T08:54:55.349Z,11.88
2019-05-10T08:55:52.951Z,11.83
2019-05-10T08:57:00.845Z,11.91
2019-05-10T08:57:52.907Z,11.91
2019-05-10T08:58:53.625Z,12.02
2019-05-10T08:59:54.165Z,11.90
2019-05-10T09:01:10.077Z,11.91
2019-05-10T09:01:53.829Z,12.01
2019-05-10T09:02:52.799Z,12.04
2019-05-10T09:03:59.932Z,11.98
2019-05-10T09:04:53.019Z,12.09
2019-05-10T09:05:52.759Z,12.14
2019-05-10T09:06:59.488Z,12.16
2019-05-10T09:07:52.697Z,12.17
2019-05-10T09:09:01.402Z,12.21
2019-05-10T09:09:53.210Z,12.20
2019-05-10T09:10:53.093Z,12.45
2019-05-10T09:11:57.892Z,12.45
2019-05-10T09:12:57.930Z,12.42
2019-05-10T09:13:53.435Z,12.42
2019-05-10T09:14:57.407Z,12.38
2019-05-10T09:15:56.843Z,12.29
2019-05-10T09:17:00.655Z,12.37
2019-05-10T09:17:52.792Z,12.28
2019-05-10T09:18:53.441Z,12.17
2019-05-10T09:19:52.448Z,12.20
2019-05-10T09:20:54.261Z,12.37
2019-05-10T09:21:54.985Z,12.38
2019-05-10T09:22:52.945Z,12.32
2019-05-10T09:24:01.134Z,12.41
2019-05-10T09:24:53.093Z,12.37
2019-05-10T09:25:52.319Z,12.49
2019-05-10T09:26:56.854Z,12.37
2019-05-10T09:27:53.085Z,12.31
2019-05-10T09:28:53.448Z,12.37
2019-05-10T09:29:53.042Z,12.46
2019-05-10T09:31:00.308Z,12.53
2019-05-10T09:31:53.453Z,12.42
2019-05-10T09:32:52.172Z,12.38
2019-05-10T09:33:54.302Z,12.28
2019-05-10T09:34:54.307Z,12.31
2019-05-10T09:35:54.955Z,12.28
2019-05-10T09:36:52.995Z,12.19
2019-05-10T09:37:54.064Z,12.19
2019-05-10T09:38:52.689Z,12.21
2019-05-10T09:39:55.424Z,12.23
2019-05-10T09:40:56.128Z,12.35
2019-05-10T09:41:52.790Z,12.28
2019-05-10T09:42:52.366Z,12.32
2019-05-10T09:43:53.792Z,12.35
2019-05-10T09:44:52.660Z,12.47
2019-05-10T09:45:53.053Z,12.41
2019-05-10T09:46:52.557Z,12.35
2019-05-10T09:47:53.007Z,12.50
2019-05-10T09:48:54.540Z,12.57
2019-05-10T09:49:58.692Z,12.59
2019-05-10T09:50:55.020Z,12.47
2019-05-10T09:51:52.517Z,12.60
2019-05-10T09:52:51.751Z,12.62
2019-05-10T09:53:51.746Z,12.62
2019-05-10T09:54:51.714Z,12.53
2019-05-10T09:56:00.135Z,12.53
2019-05-10T09:56:52.394Z,12.54
2019-05-10T09:57:51.648Z,12.54
2019-05-10T09:58:51.647Z,12.54
2019-05-10T09:59:51.609Z,12.57
2019-05-10T10:00:51.589Z,12.54
2019-05-10T10:01:51.565Z,12.60
2019-05-10T10:02:56.569Z,12.65
2019-05-10T10:03:51.523Z,12.65
2019-05-10T10:04:51.502Z,12.60
2019-05-10T10:05:55.306Z,12.62
2019-05-10T10:06:52.916Z,12.53
2019-05-10T10:07:51.441Z,12.60
2019-05-10T10:08:53.249Z,12.52
2019-05-10T10:09:51.397Z,12.53
2019-05-10T10:10:51.374Z,12.54
2019-05-10T10:11:57.986Z,12.50
2019-05-10T10:12:51.335Z,12.45
2019-05-10T10:13:59.162Z,12.31
2019-05-10T10:14:51.294Z,12.35
2019-05-10T10:15:52.443Z,12.29
2019-05-10T10:16:58.529Z,12.31
2019-05-10T10:17:51.232Z,12.31
2019-05-10T10:18:51.211Z,12.20
2019-05-10T10:19:51.191Z,12.19
2019-05-10T10:20:51.175Z,12.20
2019-05-10T10:21:51.150Z,12.21
2019-05-10T10:22:54.431Z,12.19
2019-05-10T10:23:51.111Z,12.20
2019-05-10T10:24:54.756Z,12.35
2019-05-10T10:25:51.069Z,12.32
2019-05-10T10:26:53.884Z,12.21
2019-05-10T10:27:51.036Z,12.20
2019-05-10T10:28:54.966Z,12.20
2019-05-10T10:29:50.990Z,12.17
2019-05-10T10:30:58.935Z,12.21
2019-05-10T10:31:55.472Z,12.17
2019-05-10T10:32:50.931Z,12.17
2019-05-10T10:33:57.991Z,12.05
2019-05-10T10:34:54.560Z,12.16
2019-05-10T10:35:50.856Z,12.09
2019-05-10T10:36:50.833Z,12.09
2019-05-10T10:37:50.820Z,12.13
2019-05-10T10:38:50.797Z,12.12
2019-05-10T10:39:54.568Z,12.16
2019-05-10T10:40:50.750Z,12.09
2019-05-10T10:41:52.229Z,12.13
2019-05-10T10:42:50.711Z,12.17
2019-05-10T10:43:50.689Z,12.10
2019-05-10T10:44:50.671Z,12.13
2019-05-10T10:45:50.646Z,12.14
2019-05-10T10:46:50.630Z,12.23
2019-05-10T10:47:50.604Z,12.10
2019-05-10T10:48:51.438Z,12.13
2019-05-10T10:49:50.563Z,12.12
2019-05-10T10:50:55.542Z,12.10
2019-05-10T10:51:50.530Z,12.07
2019-05-10T10:52:50.498Z,12.23
2019-05-10T10:53:50.492Z,12.12
2019-05-10T10:54:50.482Z,12.10
2019-05-10T10:55:54.297Z,12.10
2019-05-10T10:56:50.418Z,12.12
2019-05-10T10:57:50.397Z,12.07
2019-05-10T10:58:50.373Z,12.10
2019-05-10T10:59:50.356Z,12.09
2019-05-10T11:00:50.332Z,12.10
2019-05-10T11:02:04.705Z,12.13
2019-05-10T11:02:51.880Z,12.20
2019-05-10T11:03:50.267Z,12.16
2019-05-10T11:04:50.247Z,12.12
2019-05-10T11:05:50.244Z,12.12
2019-05-10T11:06:50.215Z,12.12
2019-05-10T11:07:51.169Z,12.16
2019-05-10T11:08:51.862Z,12.14
2019-05-10T11:09:53.871Z,12.21
2019-05-10T11:10:50.686Z,12.37
2019-05-10T11:11:51.611Z,12.42
2019-05-10T11:12:51.247Z,12.60
2019-05-10T11:13:57.938Z,12.60
2019-05-10T11:14:50.041Z,12.71
2019-05-10T11:15:51.631Z,12.74
2019-05-10T11:16:55.482Z,12.87
2019-05-10T11:17:50.633Z,12.83
2019-05-10T11:18:51.916Z,13.05
2019-05-10T11:19:49.936Z,12.92
2019-05-10T11:20:53.905Z,13.10
2019-05-10T11:21:51.396Z,13.19
2019-05-10T11:22:53.334Z,13.19
2019-05-10T11:23:49.853Z,13.29
2019-05-10T11:24:53.426Z,13.38
2019-05-10T11:25:55.097Z,13.45
2019-05-10T11:26:51.649Z,13.49
2019-05-10T11:27:54.069Z,13.60
2019-05-10T11:28:51.395Z,13.71
2019-05-10T11:29:52.834Z,13.70
2019-05-10T11:30:51.169Z,13.77
2019-05-10T11:32:10.230Z,13.88
2019-05-10T11:32:49.673Z,13.79
2019-05-10T11:33:53.784Z,13.87
2019-05-10T11:34:49.639Z,13.77
2019-05-10T11:35:51.403Z,13.70
2019-05-10T11:36:51.171Z,13.70
2019-05-10T11:37:50.882Z,13.69
2019-05-10T11:38:56.502Z,13.64
2019-05-10T11:39:50.457Z,13.49
2019-05-10T11:40:49.511Z,13.49
2019-05-10T11:41:52.846Z,13.44
2019-05-10T11:42:51.054Z,13.51
2019-05-10T11:43:49.447Z,13.36
2019-05-10T11:44:53.174Z,13.42
2019-05-10T11:45:51.445Z,13.30
2019-05-10T11:46:50.780Z,13.42
2019-05-10T11:47:54.310Z,13.42
2019-05-10T11:48:51.046Z,13.42
2019-05-10T11:49:50.922Z,13.49
2019-05-10T11:50:51.392Z,13.54
2019-05-10T11:51:54.854Z,13.59
2019-05-10T11:52:51.294Z,13.41
2019-05-10T11:53:55.358Z,13.39
2019-05-10T11:54:51.417Z,13.33
2019-05-10T11:55:51.518Z,13.33
2019-05-10T11:56:51.960Z,13.28
2019-05-10T11:57:56.673Z,13.12
2019-05-10T11:58:55.026Z,13.01
2019-05-10T11:59:51.488Z,13.03
2019-05-10T12:00:55.891Z,13.08
2019-05-10T12:01:55.027Z,13.05
2019-05-10T12:03:03.404Z,13.14
2019-05-10T12:03:49.035Z,13.22
2019-05-10T12:04:52.432Z,13.23
2019-05-10T12:05:56.592Z,13.23
2019-05-10T12:06:50.181Z,13.33
2019-05-10T12:07:54.143Z,13.29
2019-05-10T12:08:53.155Z,13.39
2019-05-10T12:10:56.693Z,13.29
2019-05-10T12:11:53.078Z,13.36
2019-05-10T12:13:04.953Z,13.44
2019-05-10T12:13:52.852Z,13.39
2019-05-10T12:14:48.817Z,13.39
2019-05-10T12:15:51.773Z,13.48
2019-05-10T12:16:48.787Z,13.46
2019-05-10T12:17:57.779Z,13.45
2019-05-10T12:19:05.491Z,13.59
2019-05-10T12:19:55.906Z,13.62
2019-05-10T12:20:58.608Z,13.57
2019-05-10T12:21:48.675Z,13.57
2019-05-10T12:22:51.709Z,13.57
2019-05-10T12:25:06.094Z,13.60
2019-05-10T12:26:05.675Z,13.48
2019-05-10T12:26:30.550Z,13.66
2019-05-10T12:26:50.524Z,13.29
2019-05-10T12:27:13.142Z,13.81
2019-05-10T12:27:49.905Z,13.87
2019-05-10T12:28:50.892Z,13.89
2019-05-10T12:29:55.506Z,14.02
2019-05-10T12:30:50.890Z,14.00
2019-05-10T12:31:53.343Z,13.99
2019-05-10T12:32:57.307Z,14.03
2019-05-10T12:33:50.620Z,14.00
2019-05-10T12:34:51.969Z,14.03
2019-05-10T12:35:50.826Z,14.00
2019-05-10T12:36:48.375Z,14.03
2019-05-10T12:37:51.395Z,14.12
2019-05-10T12:38:48.330Z,14.22
2019-05-10T12:39:48.303Z,14.21
2019-05-10T12:40:48.295Z,14.14
2019-05-10T12:41:49.974Z,14.04
2019-05-10T12:42:48.243Z,14.03
2019-05-10T12:43:48.643Z,13.99
2019-05-10T12:44:48.401Z,13.89
2019-05-10T12:45:48.185Z,13.81
2019-05-10T12:46:50.981Z,13.67
2019-05-10T12:47:48.165Z,13.71
2019-05-10T12:48:48.122Z,13.73
2019-05-10T12:49:48.109Z,13.67
2019-05-10T12:50:48.081Z,13.63
2019-05-10T12:51:48.069Z,13.67